sensor_id;sensor_type;location;lat;lon;timestamp;P1;durP1;ratioP1;P2;durP2;ratioP2
20375;SDS011;10347;51.828;6.466;2023-07-20T00:00:52;4.70;;;3.25;;
20375;SDS011;10347;51.828;6.466;2023-07-20T00:03:18;7.47;;;3.28;;
20375;SDS011;10347;51.828;6.466;2023-07-20T00:05:50;4.30;;;3.25;;
20375;SDS011;10347;51.828;6.466;2023-07-20T00:08:16;4.00;;;3.55;;
20375;SDS011;10347;51.828;6.466;2023-07-20T00:10:42;7.93;;;3.63;;
20375;SDS011;10347;51.828;6.466;2023-07-20T00:13:09;5.63;;;4.20;;
20375;SDS011;10347;51.828;6.466;2023-07-20T00:15:43;7.00;;;4.28;;
20375;SDS011;10347;51.828;6.466;2023-07-20T00:18:09;6.88;;;4.00;;
20375;SDS011;10347;51.828;6.466;2023-07-20T00:20:34;5.53;;;4.00;;
20375;SDS011;10347;51.828;6.466;2023-07-20T00:23:00;7.63;;;4.50;;
20375;SDS011;10347;51.828;6.466;2023-07-20T00:25:25;4.32;;;3.63;;
20375;SDS011;10347;51.828;6.466;2023-07-20T00:27:51;5.85;;;3.50;;
20375;SDS011;10347;51.828;6.466;2023-07-20T00:30:16;4.38;;;3.72;;
20375;SDS011;10347;51.828;6.466;2023-07-20T00:32:43;7.93;;;3.88;;
20375;SDS011;10347;51.828;6.466;2023-07-20T00:35:09;5.55;;;3.65;;
20375;SDS011;10347;51.828;6.466;2023-07-20T00:37:36;5.68;;;4.57;;
20375;SDS011;10347;51.828;6.466;2023-07-20T00:40:02;5.32;;;4.03;;
20375;SDS011;10347;51.828;6.466;2023-07-20T00:42:30;5.72;;;4.03;;
20375;SDS011;10347;51.828;6.466;2023-07-20T00:44:56;7.82;;;4.20;;
20375;SDS011;10347;51.828;6.466;2023-07-20T00:47:21;5.78;;;3.90;;
20375;SDS011;10347;51.828;6.466;2023-07-20T00:49:47;4.13;;;3.75;;
20375;SDS011;10347;51.828;6.466;2023-07-20T00:52:13;4.40;;;3.83;;
20375;SDS011;10347;51.828;6.466;2023-07-20T00:54:40;4.47;;;4.07;;
20375;SDS011;10347;51.828;6.466;2023-07-20T00:57:06;4.43;;;4.03;;
20375;SDS011;10347;51.828;6.466;2023-07-20T00:59:32;4.60;;;4.13;;
20375;SDS011;10347;51.828;6.466;2023-07-20T01:02:01;6.97;;;4.47;;
20375;SDS011;10347;51.828;6.466;2023-07-20T01:04:27;6.25;;;4.40;;
20375;SDS011;10347;51.828;6.466;2023-07-20T01:07:08;6.43;;;4.20;;
20375;SDS011;10347;51.828;6.466;2023-07-20T01:12:18;5.72;;;3.95;;
20375;SDS011;10347;51.828;6.466;2023-07-20T01:15:05;4.47;;;3.83;;
20375;SDS011;10347;51.828;6.466;2023-07-20T01:17:33;6.28;;;3.83;;
20375;SDS011;10347;51.828;6.466;2023-07-20T01:20:01;6.85;;;4.70;;
20375;SDS011;10347;51.828;6.466;2023-07-20T01:22:38;6.50;;;3.97;;
20375;SDS011;10347;51.828;6.466;2023-07-20T01:33:47;6.90;;;4.00;;
20375;SDS011;10347;51.828;6.466;2023-07-20T01:36:16;4.40;;;4.00;;
20375;SDS011;10347;51.828;6.466;2023-07-20T01:38:43;4.40;;;4.00;;
20375;SDS011;10347;51.828;6.466;2023-07-20T01:41:09;4.97;;;4.30;;
20375;SDS011;10347;51.828;6.466;2023-07-20T01:43:35;4.60;;;4.20;;
20375;SDS011;10347;51.828;6.466;2023-07-20T01:46:01;4.50;;;4.10;;
20375;SDS011;10347;51.828;6.466;2023-07-20T01:48:27;4.45;;;3.95;;
20375;SDS011;10347;51.828;6.466;2023-07-20T01:50:52;5.22;;;3.53;;
20375;SDS011;10347;51.828;6.466;2023-07-20T01:53:18;6.13;;;3.92;;
20375;SDS011;10347;51.828;6.466;2023-07-20T01:55:45;4.78;;;3.50;;
20375;SDS011;10347;51.828;6.466;2023-07-20T01:58:10;4.10;;;3.70;;
20375;SDS011;10347;51.828;6.466;2023-07-20T02:00:37;8.07;;;3.88;;
20375;SDS011;10347;51.828;6.466;2023-07-20T02:03:02;6.97;;;4.03;;
20375;SDS011;10347;51.828;6.466;2023-07-20T02:05:28;4.32;;;3.53;;
20375;SDS011;10347;51.828;6.466;2023-07-20T02:07:53;3.53;;;3.00;;
20375;SDS011;10347;51.828;6.466;2023-07-20T02:10:19;4.38;;;3.28;;
20375;SDS011;10347;51.828;6.466;2023-07-20T02:12:45;3.35;;;3.10;;
20375;SDS011;10347;51.828;6.466;2023-07-20T02:15:10;6.20;;;3.20;;
20375;SDS011;10347;51.828;6.466;2023-07-20T02:17:38;3.33;;;3.05;;
20375;SDS011;10347;51.828;6.466;2023-07-20T02:20:06;4.28;;;2.92;;
20375;SDS011;10347;51.828;6.466;2023-07-20T02:22:34;3.20;;;2.97;;
20375;SDS011;10347;51.828;6.466;2023-07-20T02:25:01;2.95;;;2.67;;
20375;SDS011;10347;51.828;6.466;2023-07-20T02:27:26;3.08;;;2.70;;
20375;SDS011;10347;51.828;6.466;2023-07-20T02:29:52;3.30;;;3.10;;
20375;SDS011;10347;51.828;6.466;2023-07-20T02:32:17;4.60;;;3.35;;
20375;SDS011;10347;51.828;6.466;2023-07-20T02:34:43;3.53;;;3.00;;
20375;SDS011;10347;51.828;6.466;2023-07-20T02:37:08;4.40;;;3.15;;
20375;SDS011;10347;51.828;6.466;2023-07-20T02:39:34;3.47;;;3.20;;
20375;SDS011;10347;51.828;6.466;2023-07-20T02:41:59;4.63;;;3.25;;
20375;SDS011;10347;51.828;6.466;2023-07-20T02:44:25;4.30;;;3.35;;
20375;SDS011;10347;51.828;6.466;2023-07-20T02:46:50;3.60;;;3.30;;
20375;SDS011;10347;51.828;6.466;2023-07-20T02:49:16;4.72;;;3.03;;
20375;SDS011;10347;51.828;6.466;2023-07-20T02:51:42;3.22;;;3.03;;
20375;SDS011;10347;51.828;6.466;2023-07-20T02:54:07;3.13;;;2.90;;
20375;SDS011;10347;51.828;6.466;2023-07-20T02:56:33;4.03;;;3.13;;
20375;SDS011;10347;51.828;6.466;2023-07-20T02:59:00;2.80;;;2.60;;
20375;SDS011;10347;51.828;6.466;2023-07-20T03:01:26;3.78;;;3.15;;
20375;SDS011;10347;51.828;6.466;2023-07-20T03:03:54;3.53;;;2.50;;
20375;SDS011;10347;51.828;6.466;2023-07-20T03:06:19;3.75;;;2.70;;
20375;SDS011;10347;51.828;6.466;2023-07-20T03:08:45;2.70;;;2.50;;
20375;SDS011;10347;51.828;6.466;2023-07-20T03:11:13;4.30;;;2.70;;
20375;SDS011;10347;51.828;6.466;2023-07-20T03:13:40;2.35;;;2.25;;
20375;SDS011;10347;51.828;6.466;2023-07-20T03:16:07;3.28;;;2.95;;
20375;SDS011;10347;51.828;6.466;2023-07-20T03:18:36;3.17;;;2.88;;
20375;SDS011;10347;51.828;6.466;2023-07-20T03:21:03;2.58;;;2.38;;
20375;SDS011;10347;51.828;6.466;2023-07-20T03:23:28;2.00;;;1.90;;
20375;SDS011;10347;51.828;6.466;2023-07-20T03:25:54;2.40;;;2.20;;
20375;SDS011;10347;51.828;6.466;2023-07-20T03:28:20;2.33;;;2.22;;
20375;SDS011;10347;51.828;6.466;2023-07-20T03:30:45;2.58;;;2.38;;
20375;SDS011;10347;51.828;6.466;2023-07-20T03:33:11;2.45;;;2.25;;
20375;SDS011;10347;51.828;6.466;2023-07-20T03:35:37;3.67;;;2.33;;
20375;SDS011;10347;51.828;6.466;2023-07-20T03:38:02;1.83;;;1.70;;
20375;SDS011;10347;51.828;6.466;2023-07-20T03:40:29;2.38;;;1.92;;
20375;SDS011;10347;51.828;6.466;2023-07-20T03:42:54;2.10;;;2.00;;
20375;SDS011;10347;51.828;6.466;2023-07-20T03:45:20;1.60;;;1.50;;
20375;SDS011;10347;51.828;6.466;2023-07-20T03:47:48;1.92;;;1.83;;
20375;SDS011;10347;51.828;6.466;2023-07-20T03:50:14;1.90;;;1.80;;
20375;SDS011;10347;51.828;6.466;2023-07-20T03:52:40;1.60;;;1.50;;
20375;SDS011;10347;51.828;6.466;2023-07-20T03:55:05;1.90;;;1.73;;
20375;SDS011;10347;51.828;6.466;2023-07-20T03:57:31;1.83;;;1.73;;
20375;SDS011;10347;51.828;6.466;2023-07-20T03:59:57;1.75;;;1.60;;
20375;SDS011;10347;51.828;6.466;2023-07-20T04:02:23;2.45;;;1.58;;
20375;SDS011;10347;51.828;6.466;2023-07-20T04:04:48;1.70;;;1.60;;
20375;SDS011;10347;51.828;6.466;2023-07-20T04:07:14;1.55;;;1.45;;
20375;SDS011;10347;51.828;6.466;2023-07-20T04:09:39;1.92;;;1.83;;
20375;SDS011;10347;51.828;6.466;2023-07-20T04:12:05;2.08;;;1.63;;
20375;SDS011;10347;51.828;6.466;2023-07-20T04:14:31;1.85;;;1.70;;
20375;SDS011;10347;51.828;6.466;2023-07-20T04:16:57;1.38;;;1.38;;
20375;SDS011;10347;51.828;6.466;2023-07-20T04:19:22;1.65;;;1.50;;
20375;SDS011;10347;51.828;6.466;2023-07-20T04:21:48;1.90;;;1.80;;
20375;SDS011;10347;51.828;6.466;2023-07-20T04:24:13;1.65;;;1.63;;
20375;SDS011;10347;51.828;6.466;2023-07-20T04:26:39;1.60;;;1.50;;
20375;SDS011;10347;51.828;6.466;2023-07-20T04:29:04;1.85;;;1.75;;
20375;SDS011;10347;51.828;6.466;2023-07-20T04:31:30;2.00;;;1.90;;
20375;SDS011;10347;51.828;6.466;2023-07-20T04:33:58;2.10;;;2.00;;
20375;SDS011;10347;51.828;6.466;2023-07-20T04:36:23;1.75;;;1.58;;
20375;SDS011;10347;51.828;6.466;2023-07-20T04:38:49;2.50;;;2.20;;
20375;SDS011;10347;51.828;6.466;2023-07-20T04:41:14;1.70;;;1.60;;
20375;SDS011;10347;51.828;6.466;2023-07-20T04:43:43;1.63;;;1.52;;
20375;SDS011;10347;51.828;6.466;2023-07-20T04:46:09;1.63;;;1.52;;
20375;SDS011;10347;51.828;6.466;2023-07-20T04:48:35;1.60;;;1.50;;
20375;SDS011;10347;51.828;6.466;2023-07-20T04:51:01;1.70;;;1.60;;
20375;SDS011;10347;51.828;6.466;2023-07-20T04:53:27;2.63;;;1.95;;
20375;SDS011;10347;51.828;6.466;2023-07-20T04:55:52;2.67;;;1.60;;
20375;SDS011;10347;51.828;6.466;2023-07-20T04:58:19;1.90;;;1.80;;
20375;SDS011;10347;51.828;6.466;2023-07-20T05:00:46;1.98;;;1.70;;
20375;SDS011;10347;51.828;6.466;2023-07-20T05:03:13;1.75;;;1.67;;
20375;SDS011;10347;51.828;6.466;2023-07-20T05:05:38;1.70;;;1.60;;
20375;SDS011;10347;51.828;6.466;2023-07-20T05:08:04;2.25;;;2.13;;
20375;SDS011;10347;51.828;6.466;2023-07-20T05:10:30;2.13;;;2.00;;
20375;SDS011;10347;51.828;6.466;2023-07-20T05:12:55;2.40;;;2.30;;
20375;SDS011;10347;51.828;6.466;2023-07-20T05:15:21;2.33;;;2.13;;
20375;SDS011;10347;51.828;6.466;2023-07-20T05:17:46;2.00;;;1.77;;
20375;SDS011;10347;51.828;6.466;2023-07-20T05:20:13;2.47;;;2.20;;
20375;SDS011;10347;51.828;6.466;2023-07-20T05:22:39;1.80;;;1.70;;
20375;SDS011;10347;51.828;6.466;2023-07-20T05:25:06;1.88;;;1.77;;
20375;SDS011;10347;51.828;6.466;2023-07-20T05:27:33;2.28;;;2.17;;
20375;SDS011;10347;51.828;6.466;2023-07-20T05:29:59;1.92;;;1.83;;
20375;SDS011;10347;51.828;6.466;2023-07-20T05:32:25;2.10;;;2.00;;
20375;SDS011;10347;51.828;6.466;2023-07-20T05:34:51;1.90;;;1.80;;
20375;SDS011;10347;51.828;6.466;2023-07-20T05:37:20;2.00;;;1.90;;
20375;SDS011;10347;51.828;6.466;2023-07-20T05:39:46;2.47;;;2.03;;
20375;SDS011;10347;51.828;6.466;2023-07-20T05:42:11;3.28;;;2.03;;
20375;SDS011;10347;51.828;6.466;2023-07-20T05:44:37;1.92;;;1.83;;
20375;SDS011;10347;51.828;6.466;2023-07-20T05:47:02;3.03;;;1.90;;
20375;SDS011;10347;51.828;6.466;2023-07-20T05:49:28;2.03;;;1.83;;
20375;SDS011;10347;51.828;6.466;2023-07-20T05:51:54;1.95;;;1.85;;
20375;SDS011;10347;51.828;6.466;2023-07-20T05:54:21;1.70;;;1.70;;
20375;SDS011;10347;51.828;6.466;2023-07-20T05:56:46;1.40;;;1.30;;
20375;SDS011;10347;51.828;6.466;2023-07-20T05:59:12;2.35;;;1.60;;
20375;SDS011;10347;51.828;6.466;2023-07-20T06:01:38;1.70;;;1.60;;
20375;SDS011;10347;51.828;6.466;2023-07-20T06:04:03;2.20;;;2.00;;
20375;SDS011;10347;51.828;6.466;2023-07-20T06:06:29;2.90;;;1.90;;
20375;SDS011;10347;51.828;6.466;2023-07-20T06:08:54;2.40;;;2.17;;
20375;SDS011;10347;51.828;6.466;2023-07-20T06:11:20;1.75;;;1.65;;
20375;SDS011;10347;51.828;6.466;2023-07-20T06:13:46;1.77;;;1.67;;
20375;SDS011;10347;51.828;6.466;2023-07-20T06:16:11;1.52;;;1.50;;
20375;SDS011;10347;51.828;6.466;2023-07-20T06:18:37;1.75;;;1.65;;
20375;SDS011;10347;51.828;6.466;2023-07-20T06:21:02;1.75;;;1.65;;
20375;SDS011;10347;51.828;6.466;2023-07-20T06:23:28;3.63;;;1.63;;
20375;SDS011;10347;51.828;6.466;2023-07-20T06:25:53;1.80;;;1.70;;
20375;SDS011;10347;51.828;6.466;2023-07-20T06:28:19;1.88;;;1.77;;
20375;SDS011;10347;51.828;6.466;2023-07-20T06:30:45;1.80;;;1.70;;
20375;SDS011;10347;51.828;6.466;2023-07-20T06:33:10;2.08;;;1.90;;
20375;SDS011;10347;51.828;6.466;2023-07-20T06:35:36;2.80;;;1.65;;
20375;SDS011;10347;51.828;6.466;2023-07-20T06:38:01;2.15;;;1.55;;
20375;SDS011;10347;51.828;6.466;2023-07-20T06:40:29;1.70;;;1.60;;
20375;SDS011;10347;51.828;6.466;2023-07-20T06:42:57;2.10;;;1.42;;
20375;SDS011;10347;51.828;6.466;2023-07-20T06:45:23;1.30;;;1.30;;
20375;SDS011;10347;51.828;6.466;2023-07-20T06:47:48;1.27;;;1.17;;
20375;SDS011;10347;51.828;6.466;2023-07-20T06:50:14;1.30;;;1.30;;
20375;SDS011;10347;51.828;6.466;2023-07-20T06:52:40;1.40;;;1.30;;
20375;SDS011;10347;51.828;6.466;2023-07-20T06:55:06;1.50;;;1.40;;
20375;SDS011;10347;51.828;6.466;2023-07-20T06:57:32;1.50;;;1.35;;
20375;SDS011;10347;51.828;6.466;2023-07-20T06:59:58;1.80;;;1.67;;
20375;SDS011;10347;51.828;6.466;2023-07-20T07:02:23;2.13;;;1.77;;
20375;SDS011;10347;51.828;6.466;2023-07-20T07:04:49;3.03;;;2.00;;
20375;SDS011;10347;51.828;6.466;2023-07-20T07:07:14;2.88;;;1.38;;
20375;SDS011;10347;51.828;6.466;2023-07-20T07:09:40;1.50;;;1.40;;
20375;SDS011;10347;51.828;6.466;2023-07-20T07:12:06;1.60;;;1.50;;
20375;SDS011;10347;51.828;6.466;2023-07-20T07:14:32;1.40;;;1.30;;
20375;SDS011;10347;51.828;6.466;2023-07-20T07:16:58;1.65;;;1.17;;
20375;SDS011;10347;51.828;6.466;2023-07-20T07:19:23;1.30;;;1.27;;
20375;SDS011;10347;51.828;6.466;2023-07-20T07:21:49;1.40;;;1.33;;
20375;SDS011;10347;51.828;6.466;2023-07-20T07:24:15;1.70;;;1.60;;
20375;SDS011;10347;51.828;6.466;2023-07-20T07:26:41;1.63;;;1.52;;
20375;SDS011;10347;51.828;6.466;2023-07-20T07:29:07;1.50;;;1.40;;
20375;SDS011;10347;51.828;6.466;2023-07-20T07:31:33;1.40;;;1.40;;
20375;SDS011;10347;51.828;6.466;2023-07-20T07:34:00;1.40;;;1.30;;
20375;SDS011;10347;51.828;6.466;2023-07-20T07:36:27;1.38;;;1.35;;
20375;SDS011;10347;51.828;6.466;2023-07-20T07:38:52;1.33;;;1.23;;
20375;SDS011;10347;51.828;6.466;2023-07-20T07:41:18;1.10;;;1.10;;
20375;SDS011;10347;51.828;6.466;2023-07-20T07:43:43;1.40;;;1.30;;
20375;SDS011;10347;51.828;6.466;2023-07-20T07:46:09;1.17;;;1.08;;
20375;SDS011;10347;51.828;6.466;2023-07-20T07:48:35;1.10;;;1.10;;
20375;SDS011;10347;51.828;6.466;2023-07-20T07:51:00;1.27;;;1.17;;
20375;SDS011;10347;51.828;6.466;2023-07-20T07:53:26;1.00;;;0.90;;
20375;SDS011;10347;51.828;6.466;2023-07-20T07:55:51;1.00;;;1.00;;
20375;SDS011;10347;51.828;6.466;2023-07-20T07:58:17;1.33;;;1.23;;
20375;SDS011;10347;51.828;6.466;2023-07-20T08:00:43;1.05;;;1.05;;
20375;SDS011;10347;51.828;6.466;2023-07-20T08:03:09;1.20;;;1.20;;
20375;SDS011;10347;51.828;6.466;2023-07-20T08:05:35;1.20;;;1.10;;
20375;SDS011;10347;51.828;6.466;2023-07-20T08:08:01;1.05;;;1.00;;
20375;SDS011;10347;51.828;6.466;2023-07-20T08:10:28;1.30;;;1.20;;
20375;SDS011;10347;51.828;6.466;2023-07-20T08:12:54;0.90;;;0.90;;
20375;SDS011;10347;51.828;6.466;2023-07-20T08:15:20;0.90;;;0.90;;
20375;SDS011;10347;51.828;6.466;2023-07-20T08:17:45;0.88;;;0.80;;
20375;SDS011;10347;51.828;6.466;2023-07-20T08:20:12;1.45;;;1.02;;
20375;SDS011;10347;51.828;6.466;2023-07-20T08:22:38;0.93;;;0.93;;
20375;SDS011;10347;51.828;6.466;2023-07-20T08:25:06;1.20;;;0.73;;
20375;SDS011;10347;51.828;6.466;2023-07-20T08:27:32;0.68;;;0.68;;
20375;SDS011;10347;51.828;6.466;2023-07-20T08:29:58;1.52;;;0.90;;
20375;SDS011;10347;51.828;6.466;2023-07-20T08:32:25;1.05;;;0.68;;
20375;SDS011;10347;51.828;6.466;2023-07-20T08:34:51;0.65;;;0.63;;
20375;SDS011;10347;51.828;6.466;2023-07-20T08:37:16;1.60;;;0.90;;
20375;SDS011;10347;51.828;6.466;2023-07-20T08:39:42;0.70;;;0.70;;
20375;SDS011;10347;51.828;6.466;2023-07-20T08:42:07;0.75;;;0.73;;
20375;SDS011;10347;51.828;6.466;2023-07-20T08:44:35;0.73;;;0.73;;
20375;SDS011;10347;51.828;6.466;2023-07-20T08:47:03;1.42;;;0.70;;
20375;SDS011;10347;51.828;6.466;2023-07-20T08:49:33;0.70;;;0.70;;
20375;SDS011;10347;51.828;6.466;2023-07-20T08:51:59;0.60;;;0.60;;
20375;SDS011;10347;51.828;6.466;2023-07-20T08:54:27;0.95;;;0.73;;
20375;SDS011;10347;51.828;6.466;2023-07-20T08:56:55;1.23;;;0.75;;
20375;SDS011;10347;51.828;6.466;2023-07-20T08:59:22;0.60;;;0.60;;
20375;SDS011;10347;51.828;6.466;2023-07-20T09:01:49;0.63;;;0.60;;
20375;SDS011;10347;51.828;6.466;2023-07-20T09:04:17;0.70;;;0.70;;
20375;SDS011;10347;51.828;6.466;2023-07-20T09:06:43;0.70;;;0.70;;
20375;SDS011;10347;51.828;6.466;2023-07-20T09:09:08;0.63;;;0.63;;
20375;SDS011;10347;51.828;6.466;2023-07-20T09:11:34;1.20;;;0.70;;
20375;SDS011;10347;51.828;6.466;2023-07-20T09:14:03;2.55;;;0.82;;
20375;SDS011;10347;51.828;6.466;2023-07-20T09:16:30;0.77;;;0.77;;
20375;SDS011;10347;51.828;6.466;2023-07-20T09:18:57;0.98;;;0.63;;
20375;SDS011;10347;51.828;6.466;2023-07-20T09:21:23;0.73;;;0.73;;
20375;SDS011;10347;51.828;6.466;2023-07-20T09:23:54;1.38;;;0.80;;
20375;SDS011;10347;51.828;6.466;2023-07-20T09:26:21;0.80;;;0.80;;
20375;SDS011;10347;51.828;6.466;2023-07-20T09:28:53;0.75;;;0.75;;
20375;SDS011;10347;51.828;6.466;2023-07-20T09:31:21;1.02;;;0.90;;
20375;SDS011;10347;51.828;6.466;2023-07-20T09:33:47;0.85;;;0.85;;
20375;SDS011;10347;51.828;6.466;2023-07-20T09:36:14;0.70;;;0.70;;
20375;SDS011;10347;51.828;6.466;2023-07-20T09:38:43;1.10;;;1.00;;
20375;SDS011;10347;51.828;6.466;2023-07-20T09:41:15;0.70;;;0.70;;
20375;SDS011;10347;51.828;6.466;2023-07-20T09:43:40;0.88;;;0.70;;
20375;SDS011;10347;51.828;6.466;2023-07-20T09:46:07;0.65;;;0.60;;
20375;SDS011;10347;51.828;6.466;2023-07-20T09:48:33;0.77;;;0.77;;
20375;SDS011;10347;51.828;6.466;2023-07-20T09:50:58;1.95;;;0.70;;
20375;SDS011;10347;51.828;6.466;2023-07-20T09:53:25;0.90;;;0.70;;
20375;SDS011;10347;51.828;6.466;2023-07-20T09:55:52;0.80;;;0.57;;
20375;SDS011;10347;51.828;6.466;2023-07-20T09:58:18;0.73;;;0.70;;
20375;SDS011;10347;51.828;6.466;2023-07-20T10:00:45;1.05;;;0.50;;
20375;SDS011;10347;51.828;6.466;2023-07-20T10:03:19;0.60;;;0.60;;
20375;SDS011;10347;51.828;6.466;2023-07-20T10:05:54;0.73;;;0.73;;
20375;SDS011;10347;51.828;6.466;2023-07-20T10:08:26;0.63;;;0.57;;
20375;SDS011;10347;51.828;6.466;2023-07-20T10:10:54;0.50;;;0.50;;
20375;SDS011;10347;51.828;6.466;2023-07-20T10:13:27;0.50;;;0.50;;
20375;SDS011;10347;51.828;6.466;2023-07-20T10:15:59;0.65;;;0.65;;
20375;SDS011;10347;51.828;6.466;2023-07-20T10:18:29;0.50;;;0.50;;
20375;SDS011;10347;51.828;6.466;2023-07-20T10:20:59;0.40;;;0.40;;
20375;SDS011;10347;51.828;6.466;2023-07-20T10:23:27;1.10;;;0.50;;
20375;SDS011;10347;51.828;6.466;2023-07-20T10:25:54;1.85;;;0.60;;
20375;SDS011;10347;51.828;6.466;2023-07-20T10:28:20;0.52;;;0.52;;
20375;SDS011;10347;51.828;6.466;2023-07-20T10:30:48;0.60;;;0.60;;
20375;SDS011;10347;51.828;6.466;2023-07-20T10:33:15;0.63;;;0.60;;
20375;SDS011;10347;51.828;6.466;2023-07-20T10:35:52;0.68;;;0.68;;
20375;SDS011;10347;51.828;6.466;2023-07-20T10:41:17;0.50;;;0.50;;
20375;SDS011;10347;51.828;6.466;2023-07-20T10:43:44;0.68;;;0.50;;
20375;SDS011;10347;51.828;6.466;2023-07-20T10:46:11;0.60;;;0.60;;
20375;SDS011;10347;51.828;6.466;2023-07-20T10:48:45;0.43;;;0.40;;
20375;SDS011;10347;51.828;6.466;2023-07-20T10:51:27;0.98;;;0.50;;
20375;SDS011;10347;51.828;6.466;2023-07-20T10:53:55;0.40;;;0.40;;
20375;SDS011;10347;51.828;6.466;2023-07-20T10:56:27;0.60;;;0.60;;
20375;SDS011;10347;51.828;6.466;2023-07-20T10:58:57;0.90;;;0.50;;
20375;SDS011;10347;51.828;6.466;2023-07-20T11:01:27;1.27;;;0.50;;
20375;SDS011;10347;51.828;6.466;2023-07-20T11:03:57;1.48;;;0.60;;
20375;SDS011;10347;51.828;6.466;2023-07-20T11:09:04;0.40;;;0.40;;
20375;SDS011;10347;51.828;6.466;2023-07-20T11:11:35;0.50;;;0.50;;
20375;SDS011;10347;51.828;6.466;2023-07-20T11:14:08;0.40;;;0.40;;
20375;SDS011;10347;51.828;6.466;2023-07-20T11:16:40;0.45;;;0.45;;
20375;SDS011;10347;51.828;6.466;2023-07-20T11:19:13;1.15;;;0.35;;
20375;SDS011;10347;51.828;6.466;2023-07-20T11:21:43;0.50;;;0.50;;
20375;SDS011;10347;51.828;6.466;2023-07-20T11:24:10;0.60;;;0.55;;
20375;SDS011;10347;51.828;6.466;2023-07-20T11:26:55;0.50;;;0.50;;
20375;SDS011;10347;51.828;6.466;2023-07-20T11:29:21;1.30;;;0.50;;
20375;SDS011;10347;51.828;6.466;2023-07-20T11:31:48;1.00;;;0.60;;
20375;SDS011;10347;51.828;6.466;2023-07-20T11:34:18;1.25;;;0.50;;
20375;SDS011;10347;51.828;6.466;2023-07-20T11:36:48;1.02;;;0.35;;
20375;SDS011;10347;51.828;6.466;2023-07-20T11:39:18;0.75;;;0.60;;
20375;SDS011;10347;51.828;6.466;2023-07-20T11:41:51;0.60;;;0.60;;
20375;SDS011;10347;51.828;6.466;2023-07-20T11:44:18;0.52;;;0.52;;
20375;SDS011;10347;51.828;6.466;2023-07-20T11:46:51;0.40;;;0.40;;
20375;SDS011;10347;51.828;6.466;2023-07-20T11:49:29;0.45;;;0.45;;
20375;SDS011;10347;51.828;6.466;2023-07-20T11:51:56;0.50;;;0.50;;
20375;SDS011;10347;51.828;6.466;2023-07-20T11:54:22;1.00;;;0.60;;
20375;SDS011;10347;51.828;6.466;2023-07-20T11:56:49;0.50;;;0.50;;
20375;SDS011;10347;51.828;6.466;2023-07-20T11:59:19;1.08;;;0.52;;
20375;SDS011;10347;51.828;6.466;2023-07-20T12:01:44;0.65;;;0.40;;
20375;SDS011;10347;51.828;6.466;2023-07-20T12:04:10;0.52;;;0.52;;
20375;SDS011;10347;51.828;6.466;2023-07-20T12:06:35;0.52;;;0.52;;
20375;SDS011;10347;51.828;6.466;2023-07-20T12:09:01;0.47;;;0.45;;
20375;SDS011;10347;51.828;6.466;2023-07-20T12:11:36;0.50;;;0.50;;
20375;SDS011;10347;51.828;6.466;2023-07-20T12:14:04;1.13;;;0.90;;
20375;SDS011;10347;51.828;6.466;2023-07-20T12:16:32;1.27;;;0.70;;
20375;SDS011;10347;51.828;6.466;2023-07-20T12:19:04;0.57;;;0.57;;
20375;SDS011;10347;51.828;6.466;2023-07-20T12:21:35;0.40;;;0.40;;
20375;SDS011;10347;51.828;6.466;2023-07-20T12:24:03;0.55;;;0.55;;
20375;SDS011;10347;51.828;6.466;2023-07-20T12:26:30;0.75;;;0.70;;
20375;SDS011;10347;51.828;6.466;2023-07-20T12:28:56;1.08;;;0.60;;
20375;SDS011;10347;51.828;6.466;2023-07-20T12:31:23;0.40;;;0.40;;
20375;SDS011;10347;51.828;6.466;2023-07-20T12:33:51;0.47;;;0.47;;
20375;SDS011;10347;51.828;6.466;2023-07-20T12:36:18;0.75;;;0.73;;
20375;SDS011;10347;51.828;6.466;2023-07-20T12:38:44;0.40;;;0.40;;
20375;SDS011;10347;51.828;6.466;2023-07-20T12:41:11;0.52;;;0.52;;
20375;SDS011;10347;51.828;6.466;2023-07-20T12:43:38;0.50;;;0.50;;
20375;SDS011;10347;51.828;6.466;2023-07-20T12:46:05;0.50;;;0.50;;
20375;SDS011;10347;51.828;6.466;2023-07-20T12:48:31;0.70;;;0.70;;
20375;SDS011;10347;51.828;6.466;2023-07-20T12:50:57;0.40;;;0.40;;
20375;SDS011;10347;51.828;6.466;2023-07-20T12:53:23;0.73;;;0.70;;
20375;SDS011;10347;51.828;6.466;2023-07-20T12:55:48;0.57;;;0.57;;
20375;SDS011;10347;51.828;6.466;2023-07-20T12:58:14;0.50;;;0.50;;
20375;SDS011;10347;51.828;6.466;2023-07-20T13:00:39;0.50;;;0.50;;
20375;SDS011;10347;51.828;6.466;2023-07-20T13:03:06;0.60;;;0.60;;
20375;SDS011;10347;51.828;6.466;2023-07-20T13:05:33;0.55;;;0.50;;
20375;SDS011;10347;51.828;6.466;2023-07-20T13:08:00;1.35;;;0.60;;
20375;SDS011;10347;51.828;6.466;2023-07-20T13:10:26;0.65;;;0.60;;
20375;SDS011;10347;51.828;6.466;2023-07-20T13:12:52;1.45;;;0.50;;
20375;SDS011;10347;51.828;6.466;2023-07-20T13:15:18;0.50;;;0.50;;
20375;SDS011;10347;51.828;6.466;2023-07-20T13:17:43;0.50;;;0.50;;
20375;SDS011;10347;51.828;6.466;2023-07-20T13:20:10;0.50;;;0.50;;
20375;SDS011;10347;51.828;6.466;2023-07-20T13:22:36;0.75;;;0.75;;
20375;SDS011;10347;51.828;6.466;2023-07-20T13:25:05;3.13;;;0.52;;
20375;SDS011;10347;51.828;6.466;2023-07-20T13:27:32;0.57;;;0.57;;
20375;SDS011;10347;51.828;6.466;2023-07-20T13:29:58;0.65;;;0.52;;
20375;SDS011;10347;51.828;6.466;2023-07-20T13:32:24;1.02;;;0.60;;
20375;SDS011;10347;51.828;6.466;2023-07-20T13:34:49;0.93;;;0.70;;
20375;SDS011;10347;51.828;6.466;2023-07-20T13:37:15;0.60;;;0.43;;
20375;SDS011;10347;51.828;6.466;2023-07-20T13:39:41;1.13;;;0.50;;
20375;SDS011;10347;51.828;6.466;2023-07-20T13:42:06;1.55;;;0.52;;
20375;SDS011;10347;51.828;6.466;2023-07-20T13:44:34;0.70;;;0.70;;
20375;SDS011;10347;51.828;6.466;2023-07-20T13:47:00;0.98;;;0.70;;
20375;SDS011;10347;51.828;6.466;2023-07-20T13:49:26;0.85;;;0.60;;
20375;SDS011;10347;51.828;6.466;2023-07-20T13:51:52;0.40;;;0.40;;
20375;SDS011;10347;51.828;6.466;2023-07-20T13:54:18;1.75;;;0.63;;
20375;SDS011;10347;51.828;6.466;2023-07-20T13:56:44;0.47;;;0.47;;
20375;SDS011;10347;51.828;6.466;2023-07-20T13:59:09;1.48;;;0.70;;
20375;SDS011;10347;51.828;6.466;2023-07-20T14:01:35;1.42;;;0.50;;
20375;SDS011;10347;51.828;6.466;2023-07-20T14:04:01;0.50;;;0.50;;
20375;SDS011;10347;51.828;6.466;2023-07-20T14:06:30;0.65;;;0.60;;
20375;SDS011;10347;51.828;6.466;2023-07-20T14:08:57;0.65;;;0.65;;
20375;SDS011;10347;51.828;6.466;2023-07-20T14:11:24;0.70;;;0.70;;
20375;SDS011;10347;51.828;6.466;2023-07-20T14:13:50;0.80;;;0.55;;
20375;SDS011;10347;51.828;6.466;2023-07-20T14:16:17;0.43;;;0.43;;
20375;SDS011;10347;51.828;6.466;2023-07-20T14:18:43;0.52;;;0.52;;
20375;SDS011;10347;51.828;6.466;2023-07-20T14:21:12;0.50;;;0.50;;
20375;SDS011;10347;51.828;6.466;2023-07-20T14:23:37;0.50;;;0.50;;
20375;SDS011;10347;51.828;6.466;2023-07-20T14:26:03;0.60;;;0.60;;
20375;SDS011;10347;51.828;6.466;2023-07-20T14:28:32;0.60;;;0.60;;
20375;SDS011;10347;51.828;6.466;2023-07-20T14:30:58;0.45;;;0.45;;
20375;SDS011;10347;51.828;6.466;2023-07-20T14:33:23;0.52;;;0.52;;
20375;SDS011;10347;51.828;6.466;2023-07-20T14:35:49;0.70;;;0.70;;
20375;SDS011;10347;51.828;6.466;2023-07-20T14:38:15;0.50;;;0.50;;
20375;SDS011;10347;51.828;6.466;2023-07-20T14:40:40;0.55;;;0.50;;
20375;SDS011;10347;51.828;6.466;2023-07-20T14:43:06;0.50;;;0.50;;
20375;SDS011;10347;51.828;6.466;2023-07-20T14:45:32;1.75;;;0.40;;
20375;SDS011;10347;51.828;6.466;2023-07-20T14:47:57;0.70;;;0.70;;
20375;SDS011;10347;51.828;6.466;2023-07-20T14:50:23;0.50;;;0.50;;
20375;SDS011;10347;51.828;6.466;2023-07-20T14:52:48;0.50;;;0.50;;
20375;SDS011;10347;51.828;6.466;2023-07-20T14:55:14;1.17;;;0.60;;
20375;SDS011;10347;51.828;6.466;2023-07-20T14:57:40;1.70;;;0.50;;
20375;SDS011;10347;51.828;6.466;2023-07-20T15:00:05;0.85;;;0.65;;
20375;SDS011;10347;51.828;6.466;2023-07-20T15:02:33;1.27;;;0.60;;